createdAt,value
2023-02-27T00:00:04.202Z,97762.97
2023-02-27T00:02:31.223Z,97769.84
2023-02-27T00:04:58.053Z,97770.69
2023-02-27T00:07:26.233Z,97770.69
2023-02-27T00:09:53.381Z,97767.28
2023-02-27T00:12:20.307Z,97769.03
2023-02-27T00:14:46.908Z,97772.50
2023-02-27T00:17:13.510Z,97761.34
2023-02-27T00:19:43.017Z,97763.91
2023-02-27T00:22:09.645Z,97766.47
2023-02-27T00:24:36.312Z,97767.41
2023-02-27T00:27:03.147Z,97772.53
2023-02-27T00:29:29.747Z,97769.13
2023-02-27T00:31:56.419Z,97764.84
2023-02-27T00:34:24.231Z,97765.69
2023-02-27T00:36:52.824Z,97768.25
2023-02-27T00:39:19.447Z,97779.44
2023-02-27T00:41:46.067Z,97770.84
2023-02-27T00:44:12.695Z,97777.72
2023-02-27T00:46:39.480Z,97773.47
2023-02-27T00:49:06.076Z,97778.66
2023-02-27T00:51:32.713Z,97774.31
2023-02-27T00:53:59.272Z,97774.31
2023-02-27T00:56:26.449Z,97780.31
2023-02-27T00:58:53.182Z,97772.53
2023-02-27T01:01:21.778Z,97778.56
2023-02-27T01:03:48.448Z,97778.53
2023-02-27T01:06:15.033Z,97767.34
2023-02-27T01:08:41.666Z,97769.94
2023-02-27T01:11:08.262Z,97769.97
2023-02-27T01:13:34.865Z,97764.81
2023-02-27T01:16:01.584Z,97768.25
2023-02-27T01:18:28.897Z,97760.53
2023-02-27T01:20:56.152Z,97766.56
2023-02-27T01:23:23.629Z,97770.03
2023-02-27T01:25:50.283Z,97758.81
2023-02-27T01:28:17.116Z,97762.25
2023-02-27T01:30:44.335Z,97767.41
2023-02-27T01:33:14.317Z,97764.88
2023-02-27T01:35:40.940Z,97770.06
2023-02-27T01:38:07.879Z,97767.44
2023-02-27T01:40:40.022Z,97768.34
2023-02-27T01:43:10.336Z,97770.06
2023-02-27T01:45:42.373Z,97763.16
2023-02-27T01:48:16.384Z,97772.66
2023-02-27T01:50:49.877Z,97761.47
2023-02-27T01:53:18.788Z,97764.06
2023-02-27T01:55:48.277Z,97753.75
2023-02-27T01:58:15.982Z,97760.63
2023-02-27T02:00:43.056Z,97760.66
2023-02-27T02:03:31.185Z,97759.78
2023-02-27T02:05:59.889Z,97756.34
2023-02-27T02:08:30.098Z,97755.50
2023-02-27T02:10:58.358Z,97763.22
2023-02-27T02:13:25.775Z,97760.66
2023-02-27T02:16:07.541Z,97752.91
2023-02-27T02:19:16.310Z,97758.97
2023-02-27T02:22:34.990Z,97753.78
2023-02-27T02:25:29.455Z,97753.78
2023-02-27T02:28:21.214Z,97766.66
2023-02-27T02:31:10.181Z,97755.47
2023-02-27T02:34:10.838Z,97758.06
2023-02-27T02:37:03.745Z,97763.25
2023-02-27T02:39:58.349Z,97762.41
2023-02-27T02:42:31.789Z,97766.69
2023-02-27T02:45:18.292Z,97764.09
2023-02-27T02:48:17.486Z,97762.41
2023-02-27T02:51:09.971Z,97760.66
2023-02-27T02:53:51.093Z,97761.53
2023-02-27T02:56:40.029Z,97764.09
2023-02-27T02:59:17.320Z,97764.97
2023-02-27T03:01:51.686Z,97768.41
2023-02-27T03:04:32.067Z,97759.81
2023-02-27T03:07:28.891Z,97770.13
2023-02-27T03:10:33.252Z,97777.88
2023-02-27T03:13:29.401Z,97770.16
2023-02-27T03:16:09.280Z,97771.03
2023-02-27T03:18:50.136Z,97769.28
2023-02-27T03:21:24.470Z,97776.19
2023-02-27T03:23:54.404Z,97772.75
2023-02-27T03:26:29.497Z,97773.59
2023-02-27T03:29:00.952Z,97773.63
2023-02-27T03:31:38.277Z,97774.50
2023-02-27T03:34:35.360Z,97770.19
2023-02-27T03:37:15.230Z,97781.34
2023-02-27T03:39:49.231Z,97780.50
2023-02-27T03:42:22.946Z,97777.94
2023-02-27T03:45:24.623Z,97777.09
2023-02-27T03:47:51.972Z,97777.94
2023-02-27T03:50:19.114Z,97786.56
2023-02-27T03:52:46.352Z,97787.41
2023-02-27T03:55:19.290Z,97783.97
2023-02-27T03:57:48.104Z,97791.69
2023-02-27T04:00:18.808Z,97791.72
2023-02-27T04:02:47.278Z,97792.56
2023-02-27T04:05:18.752Z,97785.63
2023-02-27T04:07:53.802Z,97792.56
2023-02-27T04:11:15.161Z,97783.97
2023-02-27T04:13:44.684Z,97784.81
2023-02-27T04:16:24.204Z,97793.41
2023-02-27T04:18:57.880Z,97789.97
2023-02-27T04:21:35.221Z,97797.72
2023-02-27T04:24:07.516Z,97789.97
2023-02-27T04:26:49.228Z,97801.97
2023-02-27T04:29:27.252Z,97795.09
2023-02-27T04:32:02.543Z,97797.69
2023-02-27T04:34:43.880Z,97795.13
2023-02-27T04:37:17.908Z,97801.16
2023-02-27T04:39:58.339Z,97799.41
2023-02-27T04:42:30.263Z,97796.84
2023-02-27T04:45:00.689Z,97798.56
2023-02-27T04:47:31.336Z,97808.91
2023-02-27T04:50:21.882Z,97802.00
2023-02-27T04:53:00.037Z,97809.75
2023-02-27T04:55:49.390Z,97805.47
2023-02-27T04:58:25.441Z,97813.19
2023-02-27T05:00:57.505Z,97808.03
2023-02-27T05:03:28.891Z,97808.91
2023-02-27T05:06:00.056Z,97803.72
2023-02-27T05:08:44.758Z,97813.16
2023-02-27T05:11:23.711Z,97814.88
2023-02-27T05:13:58.983Z,97814.06
2023-02-27T05:16:40.061Z,97813.19
2023-02-27T05:19:08.068Z,97812.34
2023-02-27T05:21:46.162Z,97814.03
2023-02-27T05:24:46.839Z,97816.63
2023-02-27T05:27:22.408Z,97820.94
2023-02-27T05:29:51.120Z,97831.25
2023-02-27T05:32:59.383Z,97829.50
2023-02-27T05:35:38.269Z,97838.13
2023-02-27T05:38:06.775Z,97833.81
2023-02-27T05:40:39.543Z,97836.38
2023-02-27T05:43:10.902Z,97830.38
2023-02-27T05:45:41.092Z,97835.50
2023-02-27T05:48:19.706Z,97833.81
2023-02-27T05:50:51.743Z,97832.09
2023-02-27T05:53:21.072Z,97837.22
2023-02-27T05:55:52.697Z,97838.06
2023-02-27T05:58:24.497Z,97835.50
2023-02-27T06:00:58.763Z,97834.66
2023-02-27T06:03:27.017Z,97834.63
2023-02-27T06:05:55.312Z,97839.78
2023-02-27T06:08:22.216Z,97844.06
2023-02-27T06:10:49.961Z,97837.19
2023-02-27T06:13:19.610Z,97833.75
2023-02-27T06:15:46.740Z,97849.22
2023-02-27T06:18:15.100Z,97839.78
2023-02-27T06:20:43.109Z,97840.63
2023-02-27T06:23:10.676Z,97839.78
2023-02-27T06:25:37.575Z,97842.31
2023-02-27T06:28:05.045Z,97843.16
2023-02-27T06:30:31.669Z,97844.03
2023-02-27T06:32:58.300Z,97851.78
2023-02-27T06:35:24.912Z,97844.94
2023-02-27T06:37:51.457Z,97856.09
2023-02-27T06:40:19.162Z,97857.78
2023-02-27T06:42:45.872Z,97862.97
2023-02-27T06:45:14.177Z,97864.69
2023-02-27T06:47:41.900Z,97867.28
2023-02-27T06:50:11.303Z,97861.25
2023-02-27T06:52:38.994Z,97863.81
2023-02-27T06:55:07.380Z,97869.84
2023-02-27T06:57:34.058Z,97873.25
2023-02-27T07:00:00.774Z,97875.84
2023-02-27T07:02:27.336Z,97879.25
2023-02-27T07:04:53.999Z,97878.38
2023-02-27T07:07:34.310Z,97880.97
2023-02-27T07:10:06.533Z,97880.06
2023-02-27T07:12:33.156Z,97905.84
2023-02-27T07:15:00.132Z,97878.31
2023-02-27T07:17:26.748Z,97874.84
2023-02-27T07:19:53.321Z,97881.66
2023-02-27T07:22:19.943Z,97879.88
2023-02-27T07:24:46.501Z,97878.97
2023-02-27T07:27:13.094Z,97885.75
2023-02-27T07:29:39.678Z,97889.19
2023-02-27T07:32:06.448Z,97890.03
2023-02-27T07:34:33.132Z,97889.09
2023-02-27T07:36:59.713Z,97885.66
2023-02-27T07:39:26.351Z,97895.13
2023-02-27T07:41:52.915Z,97891.53
2023-02-27T07:44:19.800Z,97885.44
2023-02-27T07:46:47.439Z,97881.88
2023-02-27T07:49:14.217Z,97888.78
2023-02-27T07:51:41.199Z,97899.22
2023-02-27T07:54:07.876Z,97901.78
2023-02-27T07:56:34.629Z,97891.25
2023-02-27T07:59:01.301Z,97898.09
2023-02-27T08:01:27.960Z,97899.09
2023-02-27T08:03:55.348Z,97904.88
2023-02-27T08:06:22.220Z,97894.25
2023-02-27T08:08:48.827Z,97892.38
2023-02-27T08:11:15.590Z,97901.19
2023-02-27T08:13:59.512Z,97891.72
2023-02-27T08:16:27.355Z,97894.91
2023-02-27T08:18:54.634Z,97892.31
2023-02-27T08:21:21.215Z,97897.28
2023-02-27T08:23:48.073Z,97900.09
2023-02-27T08:26:15.135Z,97910.22
2023-02-27T08:28:41.790Z,97899.13
2023-02-27T08:31:08.754Z,97908.34
2023-02-27T08:33:36.413Z,97900.28
2023-02-27T08:36:03.094Z,97896.06
2023-02-27T08:38:29.732Z,97907.22
2023-02-27T08:40:56.302Z,97906.00
2023-02-27T08:43:23.767Z,97905.94
2023-02-27T08:45:51.191Z,97903.66
2023-02-27T08:48:18.583Z,97901.06
2023-02-27T08:50:46.308Z,97903.59
2023-02-27T08:53:13.357Z,97902.69
2023-02-27T08:55:39.994Z,97904.25
2023-02-27T08:58:06.610Z,97905.88
2023-02-27T09:00:33.203Z,97900.16
2023-02-27T09:03:01.330Z,97894.41
2023-02-27T09:05:28.875Z,97893.81
2023-02-27T09:07:55.561Z,97890.81
2023-02-27T09:10:22.687Z,97897.44
2023-02-27T09:12:49.410Z,97895.28
2023-02-27T09:15:16.733Z,97905.19
2023-02-27T09:17:43.504Z,97902.00
2023-02-27T09:20:10.845Z,97898.66
2023-02-27T09:22:37.887Z,97907.22
2023-02-27T09:25:05.283Z,97896.13
2023-02-27T09:27:31.866Z,97903.53
2023-02-27T09:29:59.296Z,97906.47
2023-02-27T09:32:27.324Z,97919.63
2023-02-27T09:34:54.039Z,97911.75
2023-02-27T09:37:20.745Z,97908.84
2023-02-27T09:39:47.687Z,97913.16
2023-02-27T09:42:17.126Z,97913.97
2023-02-27T09:44:49.624Z,97926.09
2023-02-27T09:47:51.139Z,97931.94
2023-02-27T09:50:34.053Z,97923.88
2023-02-27T09:53:00.983Z,97921.72
2023-02-27T09:55:32.094Z,97936.06
2023-02-27T09:58:36.533Z,97931.00
2023-02-27T10:01:08.374Z,97936.28
2023-02-27T10:04:05.698Z,97939.66
2023-02-27T10:06:48.518Z,97936.69
2023-02-27T10:09:30.225Z,97948.69
2023-02-27T10:12:35.948Z,97950.47
2023-02-27T10:15:12.888Z,97962.25
2023-02-27T10:17:44.930Z,97958.91
2023-02-27T10:20:22.542Z,97975.59
2023-02-27T10:22:51.391Z,97965.28
2023-02-27T10:25:30.716Z,97969.72
2023-02-27T10:28:08.777Z,97972.84
2023-02-27T10:30:35.688Z,97974.91
2023-02-27T10:33:10.566Z,97963.56
2023-02-27T10:35:43.929Z,97977.53
2023-02-27T10:38:18.163Z,97992.75
2023-02-27T10:40:46.259Z,97990.34
2023-02-27T10:43:19.483Z,97981.50
2023-02-27T10:45:46.145Z,97968.97
2023-02-27T10:48:14.451Z,97959.09
2023-02-27T10:50:43.560Z,97967.69
2023-02-27T10:53:25.332Z,97959.31
2023-02-27T10:56:00.199Z,97957.69
2023-02-27T10:58:34.471Z,97973.53
2023-02-27T11:01:07.049Z,97953.31
2023-02-27T11:03:35.365Z,97973.53
2023-02-27T11:06:06.734Z,97956.69
2023-02-27T11:08:34.445Z,97952.66
2023-02-27T11:11:11.863Z,97939.84
2023-02-27T11:13:41.530Z,97939.91
2023-02-27T11:16:13.037Z,97940.59
2023-02-27T11:18:43.400Z,97935.72
2023-02-27T11:21:21.185Z,97943.50
2023-02-27T11:24:03.520Z,97922.09
2023-02-27T11:26:41.429Z,97932.50
2023-02-27T11:29:18.914Z,97923.50
2023-02-27T11:31:50.821Z,97913.63
2023-02-27T11:34:39.516Z,97910.88
2023-02-27T11:37:18.684Z,97906.94
2023-02-27T11:39:57.461Z,97904.06
2023-02-27T11:42:30.568Z,97910.09
2023-02-27T11:45:02.599Z,97898.25
2023-02-27T11:47:38.989Z,97886.94
2023-02-27T11:50:10.799Z,97886.41
2023-02-27T11:52:58.885Z,97894.53
2023-02-27T11:55:29.198Z,97891.47
2023-02-27T11:58:04.719Z,97881.00
2023-02-27T12:00:38.575Z,97887.97
2023-02-27T12:03:27.790Z,97884.19
2023-02-27T12:05:59.108Z,97876.13
2023-02-27T12:08:53.886Z,97879.97
2023-02-27T12:11:38.069Z,97870.75
2023-02-27T12:14:16.530Z,97868.69
2023-02-27T12:17:11.172Z,97871.28
2023-02-27T12:19:55.927Z,97875.81
2023-02-27T12:22:26.759Z,97866.22
2023-02-27T12:25:03.252Z,97866.59
2023-02-27T12:27:57.136Z,97865.16
2023-02-27T12:30:31.784Z,97862.03
2023-02-27T12:33:02.241Z,97863.88
2023-02-27T12:35:35.163Z,97858.09
2023-02-27T12:38:02.739Z,97848.41
2023-02-27T12:40:58.598Z,97853.38
2023-02-27T12:43:36.041Z,97853.97
2023-02-27T12:46:17.244Z,97848.94
2023-02-27T12:48:52.728Z,97851.63
2023-02-27T12:51:35.064Z,97857.25
2023-02-27T12:54:23.027Z,97843.22
2023-02-27T12:57:08.258Z,97845.31
2023-02-27T13:00:11.697Z,97857.59
2023-02-27T13:02:49.109Z,97847.38
2023-02-27T13:05:22.716Z,97845.66
2023-02-27T13:08:00.744Z,97853.84
2023-02-27T13:10:54.089Z,97851.97
2023-02-27T13:13:38.680Z,97843.25
2023-02-27T13:16:21.135Z,97849.44
2023-02-27T13:18:54.915Z,97833.94
2023-02-27T13:21:24.255Z,97833.88
2023-02-27T13:24:10.028Z,97845.56
2023-02-27T13:26:48.121Z,97841.41
2023-02-27T13:29:17.098Z,97832.16
2023-02-27T13:32:00.495Z,97836.34
2023-02-27T13:35:01.653Z,97841.34
2023-02-27T13:37:51.049Z,97831.44
2023-02-27T13:40:29.833Z,97829.16
2023-02-27T13:43:49.862Z,97839.97
2023-02-27T13:46:25.099Z,97829.78
2023-02-27T13:49:20.074Z,97839.66
2023-02-27T13:51:56.712Z,97831.69
2023-02-27T13:54:28.078Z,97836.09
2023-02-27T13:56:54.602Z,97832.25
2023-02-27T13:59:25.685Z,97834.19
2023-02-27T14:02:10.578Z,97840.16
2023-02-27T14:04:47.196Z,97843.69
2023-02-27T14:07:21.401Z,97842.63
2023-02-27T14:09:52.117Z,97851.22
2023-02-27T14:12:45.784Z,97841.16
2023-02-27T14:15:22.121Z,97845.72
2023-02-27T14:17:52.537Z,97846.63
2023-02-27T14:20:24.524Z,97853.94
2023-02-27T14:23:16.010Z,97852.69
2023-02-27T14:25:47.069Z,97847.72
2023-02-27T14:28:26.306Z,97851.28
2023-02-27T14:31:01.107Z,97853.38
2023-02-27T14:33:40.994Z,97846.41
2023-02-27T14:36:22.998Z,97848.13
2023-02-27T14:38:50.948Z,97844.63
2023-02-27T14:41:51.460Z,97849.28
2023-02-27T14:44:24.274Z,97847.13
2023-02-27T14:46:53.858Z,97855.19
2023-02-27T14:49:29.809Z,97855.34
2023-02-27T14:51:56.890Z,97855.97
2023-02-27T14:54:25.915Z,97861.25
2023-02-27T14:57:01.883Z,97855.31
2023-02-27T14:59:33.986Z,97847.63
2023-02-27T15:02:04.189Z,97845.09
2023-02-27T15:04:33.177Z,97861.31
2023-02-27T15:07:00.740Z,97854.28
2023-02-27T15:09:35.608Z,97864.09
2023-02-27T15:12:04.614Z,97852.47
2023-02-27T15:14:36.173Z,97852.22
2023-02-27T15:17:03.588Z,97853.09
2023-02-27T15:19:35.270Z,97852.38
2023-02-27T15:22:05.217Z,97870.28
2023-02-27T15:24:49.740Z,97849.50
2023-02-27T15:27:20.192Z,97856.22
2023-02-27T15:29:55.987Z,97860.00
2023-02-27T15:32:34.313Z,97853.03
2023-02-27T15:35:14.778Z,97855.78
2023-02-27T15:37:48.846Z,97865.50
2023-02-27T15:40:21.185Z,97868.03
2023-02-27T15:42:48.209Z,97858.41
2023-02-27T15:45:20.390Z,97866.88
2023-02-27T15:47:48.370Z,97859.13
2023-02-27T15:50:17.935Z,97866.22
2023-02-27T15:52:55.058Z,97862.78
2023-02-27T15:55:25.666Z,97857.69
2023-02-27T15:58:02.304Z,97864.66
2023-02-27T16:00:31.696Z,97859.56
2023-02-27T16:02:59.318Z,97867.63
2023-02-27T16:05:36.689Z,97875.34
2023-02-27T16:08:05.786Z,97889.53
2023-02-27T16:10:40.516Z,97880.03
2023-02-27T16:13:29.303Z,97887.28
2023-02-27T16:16:00.221Z,97889.09
2023-02-27T16:18:31.986Z,97882.22
2023-02-27T16:21:11.966Z,97901.41
2023-02-27T16:23:39.029Z,97897.41
2023-02-27T16:26:32.102Z,97902.41
2023-02-27T16:29:14.081Z,97905.09
2023-02-27T16:31:47.787Z,97908.50
2023-02-27T16:34:14.526Z,97922.41
2023-02-27T16:36:43.176Z,97919.06
2023-02-27T16:39:13.210Z,97911.16
2023-02-27T16:41:39.794Z,97927.72
2023-02-27T16:44:06.377Z,97922.56
2023-02-27T16:46:32.934Z,97931.28
2023-02-27T16:49:04.452Z,97933.88
2023-02-27T16:51:37.609Z,97933.03
2023-02-27T16:54:04.553Z,97942.53
2023-02-27T16:56:38.094Z,97934.81
2023-02-27T16:59:06.373Z,97934.97
2023-02-27T17:01:34.205Z,97936.63
2023-02-27T17:04:01.351Z,97942.75
2023-02-27T17:06:28.632Z,97952.16
2023-02-27T17:08:56.099Z,97947.97
2023-02-27T17:11:22.785Z,97941.03
2023-02-27T17:13:49.345Z,97948.16
2023-02-27T17:16:16.164Z,97949.94
2023-02-27T17:18:42.811Z,97949.09
2023-02-27T17:21:09.401Z,97951.69
2023-02-27T17:23:35.977Z,97950.00
2023-02-27T17:26:02.603Z,97956.94
2023-02-27T17:28:29.307Z,97957.81
2023-02-27T17:30:55.927Z,97954.38
2023-02-27T17:33:22.568Z,97967.44
2023-02-27T17:35:49.399Z,97969.94
2023-02-27T17:38:15.956Z,97965.69
2023-02-27T17:40:42.542Z,97974.44
2023-02-27T17:43:09.152Z,97973.50
2023-02-27T17:45:35.836Z,97966.63
2023-02-27T17:48:02.616Z,97959.00
2023-02-27T17:50:32.036Z,97970.94
2023-02-27T17:52:58.600Z,97973.56
2023-02-27T17:55:25.293Z,97975.41
2023-02-27T17:57:51.910Z,97975.41
2023-02-27T18:00:19.205Z,97978.13
2023-02-27T18:02:46.122Z,97981.72
2023-02-27T18:05:13.265Z,97982.59
2023-02-27T18:07:40.596Z,97977.50
2023-02-27T18:10:09.114Z,97990.47
2023-02-27T18:12:36.920Z,97983.56
2023-02-27T18:15:05.904Z,97996.72
2023-02-27T18:17:33.063Z,97991.44
2023-02-27T18:19:59.863Z,97987.19
2023-02-27T18:22:27.256Z,97982.91
2023-02-27T18:24:54.752Z,97990.75
2023-02-27T18:27:22.206Z,97991.69
2023-02-27T18:29:50.095Z,97991.84
2023-02-27T18:32:17.519Z,97989.22
2023-02-27T18:34:44.641Z,97990.94
2023-02-27T18:37:11.480Z,97984.97
2023-02-27T18:39:38.214Z,97986.81
2023-02-27T18:42:06.684Z,97982.56
2023-02-27T18:44:33.515Z,97992.94
2023-02-27T18:47:00.134Z,97987.78
2023-02-27T18:49:26.773Z,97987.84
2023-02-27T18:51:53.356Z,97989.59
2023-02-27T18:54:19.978Z,97985.28
2023-02-27T18:56:48.535Z,97983.69
2023-02-27T18:59:15.174Z,97988.00
2023-02-27T19:01:41.829Z,97990.53
2023-02-27T19:04:09.501Z,97991.34
2023-02-27T19:06:43.186Z,97999.97
2023-02-27T19:09:13.166Z,97999.91
2023-02-27T19:11:40.322Z,97996.44
2023-02-27T19:14:10.565Z,97997.34
2023-02-27T19:16:37.260Z,98000.84
2023-02-27T19:19:04.982Z,98000.88
2023-02-27T19:21:32.727Z,97995.66
2023-02-27T19:23:59.398Z,97991.44
2023-02-27T19:26:27.407Z,98000.97
2023-02-27T19:28:55.700Z,97994.97
2023-02-27T19:31:25.997Z,97989.75
2023-02-27T19:33:52.700Z,97994.09
2023-02-27T19:36:21.806Z,98001.09
2023-02-27T19:38:48.860Z,98001.97
2023-02-27T19:41:19.682Z,97998.53
2023-02-27T19:43:47.405Z,98001.06
2023-02-27T19:46:16.991Z,98003.56
2023-02-27T19:48:43.628Z,98004.34
2023-02-27T19:51:12.305Z,98001.84
2023-02-27T19:53:39.953Z,97998.25
2023-02-27T19:56:11.159Z,98003.44
2023-02-27T19:58:39.333Z,97994.94
2023-02-27T20:01:06.804Z,98006.16
2023-02-27T20:03:35.154Z,98000.03
2023-02-27T20:06:06.446Z,98000.09
2023-02-27T20:08:34.198Z,98009.63
2023-02-27T20:11:05.173Z,98013.09
2023-02-27T20:13:32.222Z,98009.63
2023-02-27T20:16:05.102Z,98018.25
2023-02-27T20:18:33.190Z,98016.50
2023-02-27T20:21:06.507Z,98012.22
2023-02-27T20:23:36.251Z,98012.22
2023-02-27T20:26:13.357Z,98013.06
2023-02-27T20:28:40.997Z,98015.72
2023-02-27T20:31:12.986Z,98014.00
2023-02-27T20:33:40.612Z,98014.03
2023-02-27T20:36:09.623Z,98020.03
2023-02-27T20:38:40.709Z,98006.94
2023-02-27T20:41:19.354Z,97998.47
2023-02-27T20:43:46.336Z,98014.06
2023-02-27T20:46:16.204Z,98003.72
2023-02-27T20:48:43.624Z,97999.41
2023-02-27T20:51:13.561Z,98006.41
2023-02-27T20:53:41.921Z,97996.97
2023-02-27T20:56:09.616Z,97992.66
2023-02-27T20:58:37.669Z,97998.75
2023-02-27T21:01:12.006Z,97991.91
2023-02-27T21:03:40.540Z,97994.56
2023-02-27T21:06:10.000Z,97998.91
2023-02-27T21:08:39.074Z,97993.75
2023-02-27T21:11:11.202Z,97995.50
2023-02-27T21:13:38.489Z,97998.97
2023-02-27T21:16:07.403Z,97995.63
2023-02-27T21:18:35.351Z,97997.38
2023-02-27T21:21:07.548Z,97998.31
2023-02-27T21:23:41.076Z,98004.38
2023-02-27T21:26:19.863Z,97995.63
2023-02-27T21:28:54.409Z,97999.94
2023-02-27T21:31:23.121Z,97996.47
2023-02-27T21:33:51.074Z,97986.13
2023-02-27T21:36:18.239Z,97991.22
2023-02-27T21:38:49.254Z,97992.94
2023-02-27T21:41:16.987Z,97986.97
2023-02-27T21:43:44.043Z,97987.84
2023-02-27T21:46:12.868Z,97989.63
2023-02-27T21:48:40.012Z,97990.44
2023-02-27T21:51:07.015Z,97987.91
2023-02-27T21:53:36.596Z,97990.56
2023-02-27T21:56:05.876Z,97982.78
2023-02-27T21:58:33.689Z,97985.41
2023-02-27T22:01:01.988Z,97994.94
2023-02-27T22:03:35.266Z,97987.13
2023-02-27T22:06:02.625Z,97988.88
2023-02-27T22:08:29.257Z,97989.69
2023-02-27T22:11:00.209Z,97987.03
2023-02-27T22:13:27.599Z,97984.44
2023-02-27T22:15:54.550Z,97981.00
2023-02-27T22:18:21.237Z,97992.19
2023-02-27T22:20:48.077Z,97984.47
2023-02-27T22:23:14.909Z,97988.81
2023-02-27T22:25:41.591Z,97987.94
2023-02-27T22:28:08.264Z,97982.69
2023-02-27T22:30:35.008Z,97994.75
2023-02-27T22:33:01.627Z,97987.03
2023-02-27T22:35:28.318Z,97988.75
2023-02-27T22:37:54.952Z,97986.16
2023-02-27T22:40:21.612Z,97988.72
2023-02-27T22:42:48.191Z,97992.16
2023-02-27T22:45:15.264Z,97990.44
2023-02-27T22:47:41.923Z,97988.75
2023-02-27T22:50:09.367Z,97981.00
2023-02-27T22:52:36.742Z,97985.38
2023-02-27T22:55:03.599Z,97982.72
2023-02-27T22:57:30.290Z,97982.69
2023-02-27T22:59:56.872Z,97984.47
2023-02-27T23:02:23.530Z,97981.03
2023-02-27T23:04:50.094Z,97973.28
2023-02-27T23:07:16.669Z,97979.41
2023-02-27T23:09:43.888Z,97988.00
2023-02-27T23:12:10.585Z,97983.72
2023-02-27T23:14:37.253Z,97991.47
2023-02-27T23:17:03.893Z,97996.75
2023-02-27T23:19:30.928Z,97988.91
2023-02-27T23:22:07.000Z,97990.66
2023-02-27T23:24:33.633Z,97997.63
2023-02-27T23:27:00.201Z,98002.84
2023-02-27T23:29:26.861Z,97997.72
2023-02-27T23:31:53.711Z,97996.00
2023-02-27T23:34:20.377Z,97998.66
2023-02-27T23:36:47.054Z,98001.28
2023-02-27T23:39:13.629Z,98002.97
2023-02-27T23:41:40.519Z,97996.91
2023-02-27T23:44:25.974Z,98002.13
2023-02-27T23:46:52.998Z,97997.84
2023-02-27T23:49:20.650Z,98000.50
2023-02-27T23:51:47.420Z,98001.38
2023-02-27T23:54:14.575Z,97997.94
2023-02-27T23:56:43.042Z,97991.94
2023-02-27T23:59:09.698Z,98008.31
